Seaboard, Alabama
Current Conditions -  °F | °C
As of 12:56 PM on Friday 24 Oct 2014 (Local Time) from KMOB Reporting Station
Few Clouds Few Clouds  
Wind Chill: 73°   Ceiling: Unl
Heat Index: 73°   Visibility: 10mi
Dew Point: 47°   Wind: 6mph
Humidity: 39%   Direction: 10°N
Pressure: 30.06"   Gusts: NA
Location:  31.1944°N, 88.2946°W
Report Text: KMOB 241756Z 01005KT 10SM FEW060 FEW150 23/08 A3006 RMK AO2 SLP177 T02280083 10228 20106 58016
Loading
Personal Weather Stations






























Interactive Weather Map
Tropical Storm Tracking
New forecast layout! Learn more

10-Day Weather Forecast

Advertisements
Track Severe Weather on mobile